Portada
METAR-TAF:

METAR-TAF

Aeropuertos :

Ghriss, Argelia

latitud: 35-12N, longitud: 000-08E, altitud: 514 m

Observación

El informe se hizo hace 44 minutos, a las 04:00 UTC
Viento 10 kt del oeste-noroeste
Temperatura 25°C
Humedad 44%
Presión 1015 hPa
Visibilidad 10 km o más
Escasas nubes a una altura de 3000 ft

METAR: DAOV 300400Z 30010KT 9999 FEW030 25/12 Q1015

Hora: 05:44 (04:44 UTC)

Pronóstico

El informe se hizo hace 2 horas y 44 minutos, a las 02:00 UTC
Pronóstico válido del 30 a las 03 UTC al 30 a las 12 UTC
Viento 2 kt con dirección variable
Visibilidad 10 km o más
Escasas nubes a una altura de 3000 ft

TAF: DAOV 300200Z 3003/3012 VRB02KT 9999 FEW030

Observaciones y pronósticos meteorológicos de más de 4000 aeropuertos (mensajes METAR y TAF).

Los puntos amarillos y rojos representan las estaciones disponibles.

Ponga el ratón en el punto deseado para ver el nombre de la estación.

Haga clic para ver las observaciones y los pronósticos meteorológicos.

Para cambiar el mapa : haga clic en los botones verdes con una cruz de color negro para hacer un zoom, en el botón verde con un guión para alejar o en las flechas verdes para mapas adyacentes.


METAR-TAF: